createdAt,value
2019-03-26T00:00:56.929Z,4.49
2019-03-26T00:04:11.160Z,4.45
2019-03-26T00:07:25.528Z,4.40
2019-03-26T00:10:39.571Z,4.35
2019-03-26T00:13:53.555Z,4.36
2019-03-26T00:17:07.845Z,4.40
2019-03-26T00:20:22.155Z,4.39
2019-03-26T00:23:36.271Z,4.35
2019-03-26T00:26:50.406Z,4.35
2019-03-26T00:30:07.501Z,4.34
2019-03-26T00:33:21.511Z,4.38
2019-03-26T00:36:35.616Z,4.40
2019-03-26T00:39:49.654Z,4.41
2019-03-26T00:43:03.779Z,4.38
2019-03-26T00:46:17.890Z,4.34
2019-03-26T00:49:32.030Z,4.27
2019-03-26T00:52:46.152Z,4.15
2019-03-26T00:56:00.187Z,4.05
2019-03-26T00:59:14.318Z,3.96
2019-03-26T01:02:28.352Z,3.83
2019-03-26T01:05:43.220Z,3.74
2019-03-26T01:08:57.245Z,3.66
2019-03-26T01:12:12.044Z,3.59
2019-03-26T01:15:26.054Z,3.48
2019-03-26T01:18:40.075Z,3.43
2019-03-26T01:21:54.195Z,3.38
2019-03-26T01:25:08.407Z,3.30
2019-03-26T01:28:22.430Z,3.27
2019-03-26T01:31:36.461Z,3.06
2019-03-26T01:34:50.460Z,2.89
2019-03-26T01:38:04.600Z,2.87
2019-03-26T01:41:19.130Z,2.81
2019-03-26T01:44:33.256Z,2.85
2019-03-26T01:47:47.380Z,2.83
2019-03-26T01:51:02.156Z,2.80
2019-03-26T01:54:16.462Z,2.78
2019-03-26T01:57:30.738Z,2.69
2019-03-26T02:00:44.983Z,2.64
2019-03-26T02:03:58.994Z,2.56
2019-03-26T02:07:13.124Z,2.52
2019-03-26T02:10:27.353Z,2.47
2019-03-26T02:13:41.631Z,2.40
2019-03-26T02:16:55.681Z,2.30
2019-03-26T02:20:10.036Z,2.20
2019-03-26T02:23:24.059Z,2.05
2019-03-26T02:26:38.055Z,1.97
2019-03-26T02:29:52.067Z,1.89
2019-03-26T02:33:06.182Z,1.84
2019-03-26T02:36:20.198Z,1.84
2019-03-26T02:39:34.627Z,1.79
2019-03-26T02:42:48.739Z,1.74
2019-03-26T02:46:02.853Z,1.72
2019-03-26T02:49:16.864Z,1.71
2019-03-26T02:52:31.349Z,1.62
2019-03-26T02:55:45.531Z,1.60
2019-03-26T02:58:59.599Z,1.61
2019-03-26T03:02:13.609Z,1.62
2019-03-26T03:05:34.965Z,1.58
2019-03-26T03:08:43.543Z,1.59
2019-03-26T03:11:58.000Z,1.52
2019-03-26T03:15:12.238Z,1.48
2019-03-26T03:18:26.269Z,1.40
2019-03-26T03:21:40.324Z,1.32
2019-03-26T03:24:54.968Z,1.29
2019-03-26T03:28:09.375Z,1.24
2019-03-26T03:31:23.407Z,1.21
2019-03-26T03:34:37.516Z,1.20
2019-03-26T03:37:51.679Z,1.21
2019-03-26T03:41:05.904Z,1.20
2019-03-26T03:44:20.012Z,1.13
2019-03-26T03:47:35.556Z,1.08
2019-03-26T03:50:52.055Z,0.97
2019-03-26T03:54:07.125Z,0.93
2019-03-26T03:57:24.478Z,0.92
2019-03-26T04:00:39.964Z,0.98
2019-03-26T04:03:54.294Z,0.98
2019-03-26T04:07:08.619Z,0.98
2019-03-26T04:10:22.639Z,1.01
2019-03-26T04:13:36.668Z,0.98
2019-03-26T04:16:50.922Z,0.98
2019-03-26T04:20:05.250Z,0.88
2019-03-26T04:23:19.303Z,0.89
2019-03-26T04:26:33.533Z,0.90
2019-03-26T04:29:47.530Z,0.89
2019-03-26T04:33:01.663Z,0.85
2019-03-26T04:36:25.415Z,0.83
2019-03-26T04:39:31.857Z,0.79
2019-03-26T04:42:46.096Z,0.75
2019-03-26T04:46:00.248Z,0.73
2019-03-26T04:52:48.292Z,0.71
2019-03-26T04:56:02.362Z,0.67
2019-03-26T04:59:16.379Z,0.66
2019-03-26T05:02:30.488Z,0.59
2019-03-26T05:05:44.635Z,0.50
2019-03-26T05:08:58.663Z,0.45
2019-03-26T05:12:12.665Z,0.36
2019-03-26T05:15:26.783Z,0.27
2019-03-26T05:18:41.120Z,0.29
2019-03-26T05:21:55.119Z,0.29
2019-03-26T05:25:09.606Z,0.31
2019-03-26T05:28:23.610Z,0.27
2019-03-26T05:31:38.072Z,0.30
2019-03-26T05:34:52.347Z,0.28
2019-03-26T05:38:06.461Z,0.28
2019-03-26T05:41:20.599Z,0.31
2019-03-26T05:44:34.632Z,0.37
2019-03-26T05:47:48.631Z,0.30
2019-03-26T05:51:02.758Z,0.23
2019-03-26T05:54:16.775Z,0.27
2019-03-26T05:57:30.892Z,0.31
2019-03-26T06:00:44.916Z,0.36
2019-03-26T06:03:58.957Z,0.41
2019-03-26T06:07:13.376Z,0.47
2019-03-26T06:10:27.390Z,0.52
2019-03-26T06:13:41.803Z,0.54
2019-03-26T06:16:56.180Z,0.45
2019-03-26T06:20:10.512Z,0.45
2019-03-26T06:23:24.719Z,0.52
2019-03-26T06:26:38.982Z,0.41
2019-03-26T06:29:53.253Z,0.46
2019-03-26T06:33:07.406Z,0.49
2019-03-26T06:36:21.430Z,0.62
2019-03-26T06:39:35.694Z,0.74
2019-03-26T06:42:49.717Z,0.79
2019-03-26T06:46:03.847Z,0.76
2019-03-26T06:49:17.952Z,0.93
2019-03-26T06:52:31.976Z,1.01
2019-03-26T06:55:46.001Z,1.14
2019-03-26T06:59:00.001Z,1.26
2019-03-26T07:02:14.330Z,1.42
2019-03-26T07:05:28.351Z,1.57
2019-03-26T07:08:42.368Z,1.67
2019-03-26T07:11:56.387Z,1.77
2019-03-26T07:15:10.638Z,1.96
2019-03-26T07:18:25.055Z,2.14
2019-03-26T07:21:49.209Z,2.30
2019-03-26T07:24:55.212Z,2.44
2019-03-26T07:28:09.227Z,2.59
2019-03-26T07:31:23.495Z,2.78
2019-03-26T07:34:37.501Z,2.95
2019-03-26T07:37:51.887Z,3.15
2019-03-26T07:41:06.013Z,3.46
2019-03-26T07:44:20.020Z,3.62
2019-03-26T07:47:34.960Z,3.89
2019-03-26T07:50:49.108Z,4.18
2019-03-26T07:54:03.516Z,4.42
2019-03-26T07:57:17.675Z,4.77
2019-03-26T08:00:33.520Z,4.98
2019-03-26T08:03:48.256Z,5.17
2019-03-26T08:07:02.297Z,5.44
2019-03-26T08:10:16.343Z,5.65
2019-03-26T08:13:30.494Z,5.85
2019-03-26T08:16:44.860Z,6.00
2019-03-26T08:19:58.893Z,6.27
2019-03-26T08:23:12.933Z,6.16
2019-03-26T08:26:26.949Z,6.04
2019-03-26T08:29:40.975Z,6.08
2019-03-26T08:32:55.168Z,6.15
2019-03-26T08:36:09.663Z,6.39
2019-03-26T08:39:23.712Z,6.78
2019-03-26T08:42:37.851Z,7.12
2019-03-26T08:45:51.991Z,7.63
2019-03-26T08:49:06.245Z,7.64
2019-03-26T08:52:20.330Z,7.64
2019-03-26T08:55:34.562Z,7.34
2019-03-26T08:58:48.694Z,6.97
2019-03-26T09:02:03.253Z,6.92
2019-03-26T09:05:17.480Z,6.99
2019-03-26T09:08:31.767Z,6.93
2019-03-26T09:11:45.886Z,6.95
2019-03-26T09:14:59.939Z,6.95
2019-03-26T09:18:14.033Z,7.04
2019-03-26T09:21:28.910Z,7.00
2019-03-26T09:24:42.977Z,7.07
2019-03-26T09:27:58.250Z,7.02
2019-03-26T09:31:12.392Z,7.06
2019-03-26T09:34:26.482Z,7.16
2019-03-26T09:37:40.521Z,7.16
2019-03-26T09:40:54.884Z,7.01
2019-03-26T09:44:09.154Z,7.25
2019-03-26T09:47:23.203Z,7.43
2019-03-26T09:50:37.445Z,7.20
2019-03-26T09:53:51.498Z,7.21
2019-03-26T09:57:06.091Z,7.37
2019-03-26T10:00:20.674Z,7.22
2019-03-26T10:03:35.147Z,7.13
2019-03-26T10:06:49.314Z,7.13
2019-03-26T10:10:04.697Z,7.22
2019-03-26T10:13:18.916Z,7.21
2019-03-26T10:16:33.202Z,7.29
2019-03-26T10:19:47.537Z,7.18
2019-03-26T10:23:01.794Z,7.26
2019-03-26T10:26:16.035Z,7.08
2019-03-26T10:29:31.221Z,7.24
2019-03-26T10:32:45.643Z,7.45
2019-03-26T10:36:00.101Z,7.68
2019-03-26T10:39:14.182Z,7.45
2019-03-26T10:42:28.496Z,7.36
2019-03-26T10:45:42.856Z,7.50
2019-03-26T10:48:56.998Z,7.61
2019-03-26T10:52:11.478Z,7.89
2019-03-26T10:55:26.017Z,8.18
2019-03-26T10:58:40.041Z,8.74
2019-03-26T11:01:54.180Z,9.12
2019-03-26T11:08:31.769Z,9.69
2019-03-26T11:11:45.906Z,9.83
2019-03-26T11:14:59.976Z,9.55
2019-03-26T11:18:14.026Z,9.45
2019-03-26T11:21:28.169Z,9.35
2019-03-26T11:24:42.312Z,9.36
2019-03-26T11:27:56.568Z,9.31
2019-03-26T11:31:10.808Z,9.13
2019-03-26T11:34:24.951Z,9.28
2019-03-26T11:37:39.130Z,9.03
2019-03-26T11:40:54.057Z,9.02
2019-03-26T11:44:08.249Z,9.12
2019-03-26T11:47:22.374Z,9.41
2019-03-26T11:50:36.651Z,9.38
2019-03-26T11:53:50.693Z,9.55
2019-03-26T11:57:04.829Z,9.39
2019-03-26T12:00:25.273Z,9.24
2019-03-26T12:03:39.824Z,9.23
2019-03-26T12:06:53.868Z,9.37
2019-03-26T12:10:08.859Z,9.31
2019-03-26T12:13:23.304Z,9.35
2019-03-26T12:16:37.827Z,9.40
2019-03-26T12:19:52.316Z,9.29
2019-03-26T12:23:06.343Z,9.16
2019-03-26T12:26:20.508Z,9.31
2019-03-26T12:29:34.803Z,9.60
2019-03-26T12:32:48.834Z,10.03
2019-03-26T12:36:03.102Z,10.10
2019-03-26T12:39:17.262Z,10.39
2019-03-26T12:42:31.596Z,10.87
2019-03-26T12:45:45.945Z,10.63
2019-03-26T12:49:00.322Z,10.23
2019-03-26T12:52:14.714Z,9.98
2019-03-26T12:55:29.194Z,10.22
2019-03-26T12:58:43.645Z,10.04
2019-03-26T13:01:57.760Z,10.01
2019-03-26T13:05:11.992Z,9.79
2019-03-26T13:08:26.555Z,9.80
2019-03-26T13:11:40.963Z,9.63
2019-03-26T13:14:55.380Z,9.55
2019-03-26T13:18:11.221Z,9.55
2019-03-26T13:21:25.573Z,9.74
2019-03-26T13:24:39.743Z,9.72
2019-03-26T13:27:53.808Z,10.01
2019-03-26T13:31:07.971Z,10.20
2019-03-26T13:34:22.242Z,10.32
2019-03-26T13:37:36.377Z,10.39
2019-03-26T13:40:50.574Z,10.31
2019-03-26T13:44:04.956Z,9.93
2019-03-26T13:47:19.072Z,9.92
2019-03-26T13:50:33.303Z,10.31
2019-03-26T13:53:47.455Z,10.27
2019-03-26T13:57:21.428Z,10.19
2019-03-26T14:00:37.410Z,10.15
2019-03-26T14:03:51.652Z,10.02
2019-03-26T14:07:06.334Z,9.83
2019-03-26T14:10:20.611Z,9.83
2019-03-26T14:13:35.038Z,10.11
2019-03-26T14:16:49.162Z,10.55
2019-03-26T14:20:26.085Z,10.79
2019-03-26T14:23:40.207Z,10.46
2019-03-26T14:26:54.257Z,10.18
2019-03-26T14:30:10.723Z,10.03
2019-03-26T14:33:24.991Z,10.19
2019-03-26T14:36:39.525Z,10.76
2019-03-26T14:39:54.583Z,11.78
2019-03-26T14:43:09.040Z,12.53
2019-03-26T14:46:23.105Z,12.83
2019-03-26T14:49:37.458Z,13.13
2019-03-26T14:52:52.606Z,13.58
2019-03-26T14:56:07.231Z,14.40
2019-03-26T14:59:21.415Z,13.74
2019-03-26T15:02:35.541Z,12.69
2019-03-26T15:05:49.958Z,12.12
2019-03-26T15:09:07.038Z,11.51
2019-03-26T15:12:21.565Z,11.24
2019-03-26T15:15:36.685Z,10.99
2019-03-26T15:18:50.998Z,10.78
2019-03-26T15:22:05.167Z,10.68
2019-03-26T15:25:19.303Z,10.57
2019-03-26T15:28:33.338Z,10.48
2019-03-26T15:31:47.378Z,10.25
2019-03-26T15:35:02.081Z,10.02
2019-03-26T15:38:16.204Z,9.75
2019-03-26T15:41:30.564Z,9.59
2019-03-26T15:44:44.653Z,9.59
2019-03-26T15:47:59.160Z,9.72
2019-03-26T15:51:13.370Z,9.75
2019-03-26T15:54:27.416Z,9.53
2019-03-26T15:57:41.459Z,9.41
2019-03-26T16:00:55.622Z,9.41
2019-03-26T16:04:09.661Z,9.44
2019-03-26T16:07:23.737Z,9.33
2019-03-26T16:10:37.999Z,9.27
2019-03-26T16:13:52.045Z,9.31
2019-03-26T16:20:43.055Z,9.68
2019-03-26T16:23:57.105Z,10.03
2019-03-26T16:27:11.208Z,10.30
2019-03-26T16:30:25.392Z,10.15
2019-03-26T16:33:39.576Z,10.01
2019-03-26T16:36:59.838Z,9.52
2019-03-26T16:40:10.164Z,9.45
2019-03-26T16:43:24.308Z,9.45
2019-03-26T16:46:38.465Z,9.52
2019-03-26T16:49:52.633Z,9.42
2019-03-26T16:53:06.796Z,9.40
2019-03-26T16:56:20.983Z,9.24
2019-03-26T16:59:35.181Z,9.14
2019-03-26T17:02:49.767Z,9.11
2019-03-26T17:06:03.918Z,9.18
2019-03-26T17:09:17.968Z,9.16
2019-03-26T17:12:32.263Z,9.03
2019-03-26T17:15:46.528Z,8.98
2019-03-26T17:19:00.562Z,9.05
2019-03-26T17:22:14.635Z,9.11
2019-03-26T17:25:28.894Z,9.15
2019-03-26T17:28:43.315Z,9.09
2019-03-26T17:31:57.352Z,9.06
2019-03-26T17:35:11.716Z,9.05
2019-03-26T17:38:25.850Z,9.08
2019-03-26T17:41:40.200Z,9.05
2019-03-26T17:44:58.176Z,8.95
2019-03-26T17:48:10.838Z,8.82
2019-03-26T17:51:25.120Z,8.73
2019-03-26T17:54:39.263Z,8.76
2019-03-26T17:57:53.390Z,8.79
2019-03-26T18:01:07.554Z,8.69
2019-03-26T18:04:21.978Z,8.60
2019-03-26T18:07:36.507Z,8.54
2019-03-26T18:10:50.772Z,8.56
2019-03-26T18:14:04.836Z,8.56
2019-03-26T18:17:19.265Z,8.38
2019-03-26T18:20:33.419Z,8.32
2019-03-26T18:23:47.580Z,8.37
2019-03-26T18:27:01.714Z,8.38
2019-03-26T18:30:16.960Z,8.40
2019-03-26T18:33:31.088Z,8.26
2019-03-26T18:36:45.236Z,8.16
2019-03-26T18:39:59.495Z,8.17
2019-03-26T18:43:13.748Z,8.19
2019-03-26T18:46:27.900Z,8.09
2019-03-26T18:49:41.989Z,7.93
2019-03-26T18:52:56.163Z,7.80
2019-03-26T18:56:10.320Z,7.73
2019-03-26T18:59:24.347Z,7.70
2019-03-26T19:02:38.419Z,7.70
2019-03-26T19:05:52.780Z,7.70
2019-03-26T19:09:07.508Z,7.56
2019-03-26T19:12:21.631Z,7.38
2019-03-26T19:15:35.880Z,7.25
2019-03-26T19:18:49.929Z,7.21
2019-03-26T19:22:04.074Z,7.11
2019-03-26T19:25:18.201Z,6.95
2019-03-26T19:28:32.253Z,6.78
2019-03-26T19:31:46.380Z,6.74
2019-03-26T19:35:00.410Z,6.65
2019-03-26T19:38:14.432Z,6.45
2019-03-26T19:41:28.724Z,6.27
2019-03-26T19:44:42.742Z,6.25
2019-03-26T19:47:56.997Z,6.03
2019-03-26T19:51:11.117Z,5.96
2019-03-26T19:54:25.452Z,5.91
2019-03-26T19:57:39.771Z,5.78
2019-03-26T20:00:53.785Z,5.64
2019-03-26T20:04:07.822Z,5.57
2019-03-26T20:07:21.852Z,5.45
2019-03-26T20:10:35.967Z,5.35
2019-03-26T20:13:50.214Z,5.22
2019-03-26T20:17:04.465Z,5.09
2019-03-26T20:20:19.144Z,4.90
2019-03-26T20:23:33.267Z,4.85
2019-03-26T20:26:47.421Z,4.73
2019-03-26T20:30:01.541Z,4.59
2019-03-26T20:33:15.867Z,4.41
2019-03-26T20:36:29.883Z,4.39
2019-03-26T20:39:43.911Z,4.36
2019-03-26T20:42:58.142Z,4.29
2019-03-26T20:46:12.274Z,4.30
2019-03-26T20:49:26.300Z,4.23
2019-03-26T20:52:40.441Z,4.31
2019-03-26T20:55:54.975Z,4.37
2019-03-26T20:59:10.229Z,4.38
2019-03-26T21:02:24.352Z,4.42
2019-03-26T21:05:38.596Z,4.52
2019-03-26T21:08:52.607Z,4.62
2019-03-26T21:12:07.022Z,4.69
2019-03-26T21:15:21.033Z,4.72
2019-03-26T21:18:35.207Z,4.74
2019-03-26T21:21:49.314Z,4.73
2019-03-26T21:25:03.990Z,4.79
2019-03-26T21:28:18.011Z,4.81
2019-03-26T21:31:32.126Z,4.80
2019-03-26T21:34:47.085Z,4.74
2019-03-26T21:38:01.314Z,4.79
2019-03-26T21:41:15.590Z,4.80
2019-03-26T21:44:29.651Z,4.81
2019-03-26T21:47:43.695Z,4.84
2019-03-26T21:50:58.539Z,4.85
2019-03-26T21:54:12.679Z,4.84
2019-03-26T21:57:26.704Z,4.86
2019-03-26T22:00:40.809Z,4.88
2019-03-26T22:03:55.991Z,4.89
2019-03-26T22:07:10.324Z,4.90
2019-03-26T22:10:24.542Z,4.94
2019-03-26T22:13:38.564Z,4.93
2019-03-26T22:16:52.571Z,4.93
2019-03-26T22:20:07.008Z,4.92
2019-03-26T22:23:21.148Z,4.94
2019-03-26T22:26:35.162Z,4.91
2019-03-26T22:29:49.187Z,4.89
2019-03-26T22:33:03.396Z,4.89
2019-03-26T22:36:17.529Z,4.88
2019-03-26T22:39:31.912Z,4.92
2019-03-26T22:42:46.176Z,4.98
2019-03-26T22:46:00.406Z,5.03
2019-03-26T22:49:14.471Z,5.07
2019-03-26T22:52:28.502Z,5.07
2019-03-26T22:55:42.512Z,5.09
2019-03-26T22:58:56.535Z,5.11
2019-03-26T23:02:10.948Z,5.11
2019-03-26T23:05:25.207Z,5.09
2019-03-26T23:08:39.336Z,5.11
2019-03-26T23:11:53.557Z,5.10
2019-03-26T23:15:17.468Z,5.09
2019-03-26T23:18:31.622Z,5.00
2019-03-26T23:21:45.755Z,4.99
2019-03-26T23:24:59.937Z,4.78
2019-03-26T23:28:13.954Z,4.79
2019-03-26T23:31:28.071Z,4.82
2019-03-26T23:34:42.224Z,4.86
2019-03-26T23:37:56.367Z,4.89
2019-03-26T23:41:10.366Z,4.88
2019-03-26T23:44:26.166Z,4.95
2019-03-26T23:47:40.544Z,4.92
2019-03-26T23:50:54.671Z,4.93
2019-03-26T23:54:08.799Z,4.90
2019-03-26T23:57:22.810Z,4.87
